Crosswind landing practice @CYYT

There is a good crosswind at St.Johns right now when you are using runway 34. Good for some practice. Will be there on TS.

CYYT 280900Z 27026G33KT 15SM BKN025 M06/M09 A2931 RMK SC7 PRESRR SLP934

3 Likes

Just tried this approach in the TBM - at 50ft I managed to flip the plane upside down lol - I crashed UD into the runway :/

1 Like

I think that’s not a shame I have to say in the TBM it’s much more tricky than in the heavy 747 … but it’s a good idea I’m going back there and will try out the TBM also …

This topic was automatically closed 90 days after the last reply. New replies are no longer allowed.